ENSG/SOG METAR and TAF weather

Enter ICAO airport designator
Station Type Date Time Source
ENSG METAR 2021/03/05 20:50 UTC NOAA

ENSG 052050Z 24008KT 9999 -SHSN FEW002 SCT015 BKN025 M01/M02 Q1022 RMK WIND 3806FT 28031KT


Station Type Date Time Source
ENSG Decoded METAR 2021/03/05 20:50 UTC NOAA

Sogndal / Haukasen, Norway (ENSG) 61-09N 007-08E 497M
Mar 05, 2021 - 03:50 PM EST / 2021.03.05 2050 UTC
Wind: from the WSW (240 degrees) at 9 MPH (8 KT):0
Visibility: greater than 7 mile(s):0
Sky conditions: mostly cloudy
Weather: light snow showers
Temperature: 30 F (-1 C)
Windchill: 21 F (-6 C):1
Dew Point: 28 F (-2 C)
Relative Humidity: 92%
Pressure (altimeter): 30.18 in. Hg (1022 hPa)
ob: ENSG 052050Z 24008KT 9999 -SHSN FEW002 SCT015 BKN025 M01/M02 Q1022 RMK WIND 3806FT 28031KT
cycle: 21

Station Type Date Time Source
ENSG TAF UTC NOAA

Error!

Example: see airport list